sensor_id;sensor_type;location;lat;lon;timestamp;P1;durP1;ratioP1;P2;durP2;ratioP2
25917;SDS011;13899;51.174;4.456;2023-04-25T00:01:45;14.40;;;3.30;;
25917;SDS011;13899;51.174;4.456;2023-04-25T00:04:11;12.02;;;3.00;;
25917;SDS011;13899;51.174;4.456;2023-04-25T00:06:39;11.07;;;3.45;;
25917;SDS011;13899;51.174;4.456;2023-04-25T00:09:06;14.45;;;3.92;;
25917;SDS011;13899;51.174;4.456;2023-04-25T00:11:36;11.73;;;3.03;;
25917;SDS011;13899;51.174;4.456;2023-04-25T00:14:03;11.10;;;3.88;;
25917;SDS011;13899;51.174;4.456;2023-04-25T00:16:29;9.10;;;3.33;;
25917;SDS011;13899;51.174;4.456;2023-04-25T00:18:58;7.03;;;2.95;;
25917;SDS011;13899;51.174;4.456;2023-04-25T00:21:24;11.20;;;3.47;;
25917;SDS011;13899;51.174;4.456;2023-04-25T00:23:51;14.13;;;4.43;;
25917;SDS011;13899;51.174;4.456;2023-04-25T00:26:17;14.13;;;3.95;;
25917;SDS011;13899;51.174;4.456;2023-04-25T00:28:43;10.00;;;3.20;;
25917;SDS011;13899;51.174;4.456;2023-04-25T00:31:09;11.73;;;3.50;;
25917;SDS011;13899;51.174;4.456;2023-04-25T00:33:35;13.85;;;3.15;;
25917;SDS011;13899;51.174;4.456;2023-04-25T00:36:01;7.57;;;3.25;;
25917;SDS011;13899;51.174;4.456;2023-04-25T00:38:26;11.60;;;2.90;;
25917;SDS011;13899;51.174;4.456;2023-04-25T00:40:52;12.55;;;3.10;;
25917;SDS011;13899;51.174;4.456;2023-04-25T00:43:18;9.32;;;3.08;;
25917;SDS011;13899;51.174;4.456;2023-04-25T00:45:44;16.60;;;3.08;;
25917;SDS011;13899;51.174;4.456;2023-04-25T00:48:13;14.98;;;3.67;;
25917;SDS011;13899;51.174;4.456;2023-04-25T00:50:39;14.35;;;4.18;;
25917;SDS011;13899;51.174;4.456;2023-04-25T00:53:06;17.52;;;3.60;;
25917;SDS011;13899;51.174;4.456;2023-04-25T00:55:32;12.85;;;3.42;;
25917;SDS011;13899;51.174;4.456;2023-04-25T01:00:25;13.57;;;3.22;;
25917;SDS011;13899;51.174;4.456;2023-04-25T01:02:51;21.60;;;3.37;;
25917;SDS011;13899;51.174;4.456;2023-04-25T01:05:17;19.07;;;4.23;;
25917;SDS011;13899;51.174;4.456;2023-04-25T01:07:43;16.15;;;4.10;;
25917;SDS011;13899;51.174;4.456;2023-04-25T01:10:10;15.82;;;3.42;;
25917;SDS011;13899;51.174;4.456;2023-04-25T01:12:36;11.48;;;3.38;;
25917;SDS011;13899;51.174;4.456;2023-04-25T01:15:02;10.07;;;3.80;;
25917;SDS011;13899;51.174;4.456;2023-04-25T01:17:28;11.40;;;3.73;;
25917;SDS011;13899;51.174;4.456;2023-04-25T01:19:54;16.13;;;3.50;;
25917;SDS011;13899;51.174;4.456;2023-04-25T01:22:20;7.25;;;2.80;;
25917;SDS011;13899;51.174;4.456;2023-04-25T01:24:46;14.13;;;3.37;;
25917;SDS011;13899;51.174;4.456;2023-04-25T01:27:12;11.85;;;3.20;;
25917;SDS011;13899;51.174;4.456;2023-04-25T01:29:38;16.73;;;3.47;;
25917;SDS011;13899;51.174;4.456;2023-04-25T01:32:04;12.70;;;3.25;;
25917;SDS011;13899;51.174;4.456;2023-04-25T01:34:30;13.57;;;3.53;;
25917;SDS011;13899;51.174;4.456;2023-04-25T01:36:56;9.53;;;3.43;;
25917;SDS011;13899;51.174;4.456;2023-04-25T01:39:25;13.93;;;5.00;;
25917;SDS011;13899;51.174;4.456;2023-04-25T01:41:50;10.98;;;3.75;;
25917;SDS011;13899;51.174;4.456;2023-04-25T01:44:16;15.75;;;4.07;;
25917;SDS011;13899;51.174;4.456;2023-04-25T01:46:42;16.42;;;3.80;;
25917;SDS011;13899;51.174;4.456;2023-04-25T01:49:08;14.80;;;3.53;;
25917;SDS011;13899;51.174;4.456;2023-04-25T01:51:33;20.58;;;4.40;;
25917;SDS011;13899;51.174;4.456;2023-04-25T01:54:00;14.03;;;4.03;;
25917;SDS011;13899;51.174;4.456;2023-04-25T01:56:29;12.35;;;3.20;;
25917;SDS011;13899;51.174;4.456;2023-04-25T01:58:56;11.25;;;4.00;;
25917;SDS011;13899;51.174;4.456;2023-04-25T02:01:23;12.60;;;3.90;;
25917;SDS011;13899;51.174;4.456;2023-04-25T02:03:49;12.43;;;4.17;;
25917;SDS011;13899;51.174;4.456;2023-04-25T02:06:14;16.83;;;4.90;;
25917;SDS011;13899;51.174;4.456;2023-04-25T02:08:40;17.87;;;4.57;;
25917;SDS011;13899;51.174;4.456;2023-04-25T02:11:06;19.05;;;4.63;;
25917;SDS011;13899;51.174;4.456;2023-04-25T02:13:31;28.77;;;5.83;;
25917;SDS011;13899;51.174;4.456;2023-04-25T02:15:57;13.75;;;4.22;;
25917;SDS011;13899;51.174;4.456;2023-04-25T02:18:22;17.83;;;3.70;;
25917;SDS011;13899;51.174;4.456;2023-04-25T02:20:48;11.60;;;4.38;;
25917;SDS011;13899;51.174;4.456;2023-04-25T02:23:14;20.15;;;5.00;;
25917;SDS011;13899;51.174;4.456;2023-04-25T02:25:44;14.05;;;4.70;;
25917;SDS011;13899;51.174;4.456;2023-04-25T02:28:09;17.70;;;4.30;;
25917;SDS011;13899;51.174;4.456;2023-04-25T02:30:36;16.33;;;4.95;;
25917;SDS011;13899;51.174;4.456;2023-04-25T02:33:03;17.23;;;4.07;;
25917;SDS011;13899;51.174;4.456;2023-04-25T02:35:28;13.77;;;5.10;;
25917;SDS011;13899;51.174;4.456;2023-04-25T02:38:02;13.68;;;4.60;;
25917;SDS011;13899;51.174;4.456;2023-04-25T02:40:27;23.67;;;5.90;;
25917;SDS011;13899;51.174;4.456;2023-04-25T02:42:53;14.27;;;4.90;;
25917;SDS011;13899;51.174;4.456;2023-04-25T02:45:19;16.20;;;5.10;;
25917;SDS011;13899;51.174;4.456;2023-04-25T02:47:45;12.25;;;5.10;;
25917;SDS011;13899;51.174;4.456;2023-04-25T02:50:10;17.40;;;4.53;;
25917;SDS011;13899;51.174;4.456;2023-04-25T02:52:36;16.10;;;5.30;;
25917;SDS011;13899;51.174;4.456;2023-04-25T02:55:01;10.93;;;5.45;;
25917;SDS011;13899;51.174;4.456;2023-04-25T02:57:27;14.90;;;5.60;;
25917;SDS011;13899;51.174;4.456;2023-04-25T02:59:53;19.30;;;4.93;;
25917;SDS011;13899;51.174;4.456;2023-04-25T03:02:19;13.57;;;5.45;;
25917;SDS011;13899;51.174;4.456;2023-04-25T03:04:44;10.95;;;5.03;;
25917;SDS011;13899;51.174;4.456;2023-04-25T03:07:11;11.27;;;4.50;;
25917;SDS011;13899;51.174;4.456;2023-04-25T03:09:36;16.65;;;5.97;;
25917;SDS011;13899;51.174;4.456;2023-04-25T03:12:02;10.23;;;4.87;;
25917;SDS011;13899;51.174;4.456;2023-04-25T03:14:28;24.33;;;6.10;;
25917;SDS011;13899;51.174;4.456;2023-04-25T03:16:53;14.63;;;6.53;;
25917;SDS011;13899;51.174;4.456;2023-04-25T03:19:19;19.63;;;5.70;;
25917;SDS011;13899;51.174;4.456;2023-04-25T03:21:45;14.63;;;5.50;;
25917;SDS011;13899;51.174;4.456;2023-04-25T03:24:11;17.57;;;5.13;;
25917;SDS011;13899;51.174;4.456;2023-04-25T03:26:36;17.75;;;5.32;;
25917;SDS011;13899;51.174;4.456;2023-04-25T03:29:02;21.47;;;6.03;;
25917;SDS011;13899;51.174;4.456;2023-04-25T03:33:55;18.90;;;5.65;;
25917;SDS011;13899;51.174;4.456;2023-04-25T03:36:21;24.63;;;5.73;;
25917;SDS011;13899;51.174;4.456;2023-04-25T03:38:46;15.05;;;5.22;;
25917;SDS011;13899;51.174;4.456;2023-04-25T03:41:13;15.93;;;5.72;;
25917;SDS011;13899;51.174;4.456;2023-04-25T03:43:39;21.73;;;5.35;;
25917;SDS011;13899;51.174;4.456;2023-04-25T03:46:04;26.25;;;7.10;;
25917;SDS011;13899;51.174;4.456;2023-04-25T03:48:30;11.67;;;4.50;;
25917;SDS011;13899;51.174;4.456;2023-04-25T03:50:56;16.43;;;4.77;;
25917;SDS011;13899;51.174;4.456;2023-04-25T03:53:21;14.23;;;5.15;;
25917;SDS011;13899;51.174;4.456;2023-04-25T03:55:47;12.48;;;5.15;;
25917;SDS011;13899;51.174;4.456;2023-04-25T03:58:13;11.30;;;4.70;;
25917;SDS011;13899;51.174;4.456;2023-04-25T04:00:38;12.23;;;4.33;;
25917;SDS011;13899;51.174;4.456;2023-04-25T04:03:04;19.77;;;6.90;;
25917;SDS011;13899;51.174;4.456;2023-04-25T04:05:30;15.02;;;4.93;;
25917;SDS011;13899;51.174;4.456;2023-04-25T04:07:56;21.77;;;5.55;;
25917;SDS011;13899;51.174;4.456;2023-04-25T04:10:22;16.45;;;5.15;;
25917;SDS011;13899;51.174;4.456;2023-04-25T04:12:51;12.10;;;5.15;;
25917;SDS011;13899;51.174;4.456;2023-04-25T04:15:16;14.37;;;4.87;;
25917;SDS011;13899;51.174;4.456;2023-04-25T04:17:42;17.25;;;6.22;;
25917;SDS011;13899;51.174;4.456;2023-04-25T04:20:08;18.85;;;5.10;;
25917;SDS011;13899;51.174;4.456;2023-04-25T04:22:34;10.98;;;5.10;;
25917;SDS011;13899;51.174;4.456;2023-04-25T04:25:00;12.93;;;4.72;;
25917;SDS011;13899;51.174;4.456;2023-04-25T04:27:26;10.00;;;4.35;;
25917;SDS011;13899;51.174;4.456;2023-04-25T04:29:53;16.42;;;5.15;;
25917;SDS011;13899;51.174;4.456;2023-04-25T04:32:19;10.23;;;3.47;;
25917;SDS011;13899;51.174;4.456;2023-04-25T04:34:45;14.48;;;3.97;;
25917;SDS011;13899;51.174;4.456;2023-04-25T04:37:12;10.60;;;3.85;;
25917;SDS011;13899;51.174;4.456;2023-04-25T04:39:38;8.52;;;3.40;;
25917;SDS011;13899;51.174;4.456;2023-04-25T04:42:03;16.23;;;4.10;;
25917;SDS011;13899;51.174;4.456;2023-04-25T04:44:30;19.77;;;4.53;;
25917;SDS011;13899;51.174;4.456;2023-04-25T04:47:00;7.45;;;3.38;;
25917;SDS011;13899;51.174;4.456;2023-04-25T04:49:26;6.90;;;3.72;;
25917;SDS011;13899;51.174;4.456;2023-04-25T04:51:53;12.57;;;3.37;;
25917;SDS011;13899;51.174;4.456;2023-04-25T04:54:19;11.05;;;4.18;;
25917;SDS011;13899;51.174;4.456;2023-04-25T04:56:45;7.03;;;3.63;;
25917;SDS011;13899;51.174;4.456;2023-04-25T04:59:11;14.13;;;3.90;;
25917;SDS011;13899;51.174;4.456;2023-04-25T05:01:38;13.65;;;3.60;;
25917;SDS011;13899;51.174;4.456;2023-04-25T05:04:05;7.88;;;3.72;;
25917;SDS011;13899;51.174;4.456;2023-04-25T05:06:31;11.30;;;4.00;;
25917;SDS011;13899;51.174;4.456;2023-04-25T05:08:57;9.20;;;3.90;;
25917;SDS011;13899;51.174;4.456;2023-04-25T05:11:23;10.67;;;4.03;;
25917;SDS011;13899;51.174;4.456;2023-04-25T05:13:50;10.55;;;3.35;;
25917;SDS011;13899;51.174;4.456;2023-04-25T05:16:17;9.40;;;3.63;;
25917;SDS011;13899;51.174;4.456;2023-04-25T05:18:42;7.87;;;3.90;;
25917;SDS011;13899;51.174;4.456;2023-04-25T05:21:08;11.07;;;4.15;;
25917;SDS011;13899;51.174;4.456;2023-04-25T05:23:34;19.85;;;4.65;;
25917;SDS011;13899;51.174;4.456;2023-04-25T05:26:00;7.30;;;3.28;;
25917;SDS011;13899;51.174;4.456;2023-04-25T05:28:28;12.55;;;4.72;;
25917;SDS011;13899;51.174;4.456;2023-04-25T05:30:54;12.00;;;4.20;;
25917;SDS011;13899;51.174;4.456;2023-04-25T05:33:19;15.02;;;4.22;;
25917;SDS011;13899;51.174;4.456;2023-04-25T05:35:45;14.73;;;4.00;;
25917;SDS011;13899;51.174;4.456;2023-04-25T05:38:11;15.27;;;4.75;;
25917;SDS011;13899;51.174;4.456;2023-04-25T05:40:37;12.18;;;4.15;;
25917;SDS011;13899;51.174;4.456;2023-04-25T05:43:03;14.60;;;3.95;;
25917;SDS011;13899;51.174;4.456;2023-04-25T05:45:29;15.38;;;4.82;;
25917;SDS011;13899;51.174;4.456;2023-04-25T05:47:54;20.10;;;4.88;;
25917;SDS011;13899;51.174;4.456;2023-04-25T05:50:20;13.80;;;4.43;;
25917;SDS011;13899;51.174;4.456;2023-04-25T05:52:46;17.67;;;4.75;;
25917;SDS011;13899;51.174;4.456;2023-04-25T05:55:12;17.00;;;4.40;;
25917;SDS011;13899;51.174;4.456;2023-04-25T05:57:38;11.05;;;4.95;;
25917;SDS011;13899;51.174;4.456;2023-04-25T06:00:06;10.75;;;4.28;;
25917;SDS011;13899;51.174;4.456;2023-04-25T06:02:34;15.20;;;4.85;;
25917;SDS011;13899;51.174;4.456;2023-04-25T06:05:00;11.33;;;4.47;;
25917;SDS011;13899;51.174;4.456;2023-04-25T06:07:28;12.32;;;4.00;;
25917;SDS011;13899;51.174;4.456;2023-04-25T06:09:55;13.25;;;4.82;;
25917;SDS011;13899;51.174;4.456;2023-04-25T06:12:21;12.00;;;4.23;;
25917;SDS011;13899;51.174;4.456;2023-04-25T06:14:46;11.40;;;3.53;;
25917;SDS011;13899;51.174;4.456;2023-04-25T06:17:12;11.77;;;3.20;;
25917;SDS011;13899;51.174;4.456;2023-04-25T06:19:38;12.57;;;3.17;;
25917;SDS011;13899;51.174;4.456;2023-04-25T06:22:04;9.43;;;3.73;;
25917;SDS011;13899;51.174;4.456;2023-04-25T06:24:32;6.90;;;2.83;;
25917;SDS011;13899;51.174;4.456;2023-04-25T06:26:58;6.63;;;2.67;;
25917;SDS011;13899;51.174;4.456;2023-04-25T06:29:23;10.73;;;3.67;;
25917;SDS011;13899;51.174;4.456;2023-04-25T06:31:49;10.33;;;2.50;;
25917;SDS011;13899;51.174;4.456;2023-04-25T06:34:15;9.50;;;2.72;;
25917;SDS011;13899;51.174;4.456;2023-04-25T06:36:41;10.47;;;2.70;;
25917;SDS011;13899;51.174;4.456;2023-04-25T06:39:08;20.65;;;4.85;;
25917;SDS011;13899;51.174;4.456;2023-04-25T06:41:35;10.90;;;2.95;;
25917;SDS011;13899;51.174;4.456;2023-04-25T06:44:01;7.47;;;2.30;;
25917;SDS011;13899;51.174;4.456;2023-04-25T06:46:26;11.73;;;2.22;;
25917;SDS011;13899;51.174;4.456;2023-04-25T06:48:55;9.80;;;3.45;;
25917;SDS011;13899;51.174;4.456;2023-04-25T06:51:21;9.52;;;2.80;;
25917;SDS011;13899;51.174;4.456;2023-04-25T06:53:47;12.47;;;3.00;;
25917;SDS011;13899;51.174;4.456;2023-04-25T06:56:12;7.38;;;2.30;;
25917;SDS011;13899;51.174;4.456;2023-04-25T06:58:38;8.35;;;3.08;;
25917;SDS011;13899;51.174;4.456;2023-04-25T07:01:14;8.88;;;3.05;;
25917;SDS011;13899;51.174;4.456;2023-04-25T07:03:40;10.63;;;2.20;;
25917;SDS011;13899;51.174;4.456;2023-04-25T07:06:06;6.50;;;2.40;;
25917;SDS011;13899;51.174;4.456;2023-04-25T07:08:32;10.43;;;2.28;;
25917;SDS011;13899;51.174;4.456;2023-04-25T07:10:57;7.68;;;2.42;;
25917;SDS011;13899;51.174;4.456;2023-04-25T07:13:23;10.00;;;2.40;;
25917;SDS011;13899;51.174;4.456;2023-04-25T07:15:49;7.37;;;2.50;;
25917;SDS011;13899;51.174;4.456;2023-04-25T07:18:15;12.43;;;3.67;;
25917;SDS011;13899;51.174;4.456;2023-04-25T07:20:41;4.60;;;2.03;;
25917;SDS011;13899;51.174;4.456;2023-04-25T07:23:06;10.30;;;2.50;;
25917;SDS011;13899;51.174;4.456;2023-04-25T07:25:32;10.23;;;2.33;;
25917;SDS011;13899;51.174;4.456;2023-04-25T07:27:58;8.77;;;2.60;;
25917;SDS011;13899;51.174;4.456;2023-04-25T07:30:23;13.02;;;2.72;;
25917;SDS011;13899;51.174;4.456;2023-04-25T07:32:49;8.20;;;2.33;;
25917;SDS011;13899;51.174;4.456;2023-04-25T07:35:16;5.55;;;2.28;;
25917;SDS011;13899;51.174;4.456;2023-04-25T07:37:42;10.13;;;2.47;;
25917;SDS011;13899;51.174;4.456;2023-04-25T07:40:08;9.52;;;2.60;;
25917;SDS011;13899;51.174;4.456;2023-04-25T07:42:35;7.93;;;1.95;;
25917;SDS011;13899;51.174;4.456;2023-04-25T07:45:01;11.17;;;3.07;;
25917;SDS011;13899;51.174;4.456;2023-04-25T07:47:27;8.32;;;2.38;;
25917;SDS011;13899;51.174;4.456;2023-04-25T07:49:56;9.98;;;2.50;;
25917;SDS011;13899;51.174;4.456;2023-04-25T07:52:22;10.70;;;2.55;;
25917;SDS011;13899;51.174;4.456;2023-04-25T07:54:48;19.77;;;3.97;;
25917;SDS011;13899;51.174;4.456;2023-04-25T07:57:14;12.70;;;3.17;;
25917;SDS011;13899;51.174;4.456;2023-04-25T07:59:40;9.98;;;2.17;;
25917;SDS011;13899;51.174;4.456;2023-04-25T08:02:05;11.52;;;2.15;;
25917;SDS011;13899;51.174;4.456;2023-04-25T08:04:31;9.77;;;2.07;;
25917;SDS011;13899;51.174;4.456;2023-04-25T08:06:57;8.50;;;2.07;;
25917;SDS011;13899;51.174;4.456;2023-04-25T08:09:23;4.60;;;1.60;;
25917;SDS011;13899;51.174;4.456;2023-04-25T08:11:49;5.72;;;1.55;;
25917;SDS011;13899;51.174;4.456;2023-04-25T08:14:14;6.38;;;1.85;;
25917;SDS011;13899;51.174;4.456;2023-04-25T08:16:40;3.83;;;1.38;;
25917;SDS011;13899;51.174;4.456;2023-04-25T08:19:07;4.28;;;1.30;;
25917;SDS011;13899;51.174;4.456;2023-04-25T08:21:32;4.33;;;1.67;;
25917;SDS011;13899;51.174;4.456;2023-04-25T08:23:58;3.78;;;1.25;;
25917;SDS011;13899;51.174;4.456;2023-04-25T08:26:24;4.93;;;1.40;;
25917;SDS011;13899;51.174;4.456;2023-04-25T08:28:50;3.55;;;1.33;;
25917;SDS011;13899;51.174;4.456;2023-04-25T08:31:16;2.53;;;1.15;;
25917;SDS011;13899;51.174;4.456;2023-04-25T08:33:42;2.77;;;1.37;;
25917;SDS011;13899;51.174;4.456;2023-04-25T08:36:08;3.60;;;1.52;;
25917;SDS011;13899;51.174;4.456;2023-04-25T08:38:34;3.17;;;1.40;;
25917;SDS011;13899;51.174;4.456;2023-04-25T08:41:01;7.97;;;1.40;;
25917;SDS011;13899;51.174;4.456;2023-04-25T08:43:27;2.95;;;1.27;;
25917;SDS011;13899;51.174;4.456;2023-04-25T08:45:56;5.25;;;1.50;;
25917;SDS011;13899;51.174;4.456;2023-04-25T08:48:26;2.45;;;1.20;;
25917;SDS011;13899;51.174;4.456;2023-04-25T08:50:54;3.42;;;1.42;;
25917;SDS011;13899;51.174;4.456;2023-04-25T08:53:31;5.18;;;1.02;;
25917;SDS011;13899;51.174;4.456;2023-04-25T08:55:58;6.15;;;1.60;;
25917;SDS011;13899;51.174;4.456;2023-04-25T08:58:27;6.22;;;2.90;;
25917;SDS011;13899;51.174;4.456;2023-04-25T09:00:53;3.97;;;2.20;;
25917;SDS011;13899;51.174;4.456;2023-04-25T09:03:19;3.78;;;3.22;;
25917;SDS011;13899;51.174;4.456;2023-04-25T09:05:44;2.73;;;1.10;;
25917;SDS011;13899;51.174;4.456;2023-04-25T09:08:10;4.35;;;1.23;;
25917;SDS011;13899;51.174;4.456;2023-04-25T09:10:37;4.38;;;3.40;;
25917;SDS011;13899;51.174;4.456;2023-04-25T09:13:07;6.15;;;1.83;;
25917;SDS011;13899;51.174;4.456;2023-04-25T09:15:46;2.75;;;1.33;;
25917;SDS011;13899;51.174;4.456;2023-04-25T09:20:49;3.17;;;1.20;;
25917;SDS011;13899;51.174;4.456;2023-04-25T09:23:14;2.97;;;0.90;;
25917;SDS011;13899;51.174;4.456;2023-04-25T09:25:40;2.63;;;1.00;;
25917;SDS011;13899;51.174;4.456;2023-04-25T09:28:08;5.18;;;1.50;;
25917;SDS011;13899;51.174;4.456;2023-04-25T09:30:35;2.30;;;1.10;;
25917;SDS011;13899;51.174;4.456;2023-04-25T09:35:35;5.75;;;1.50;;
25917;SDS011;13899;51.174;4.456;2023-04-25T09:38:06;2.80;;;1.20;;
25917;SDS011;13899;51.174;4.456;2023-04-25T09:40:33;4.47;;;1.10;;
25917;SDS011;13899;51.174;4.456;2023-04-25T09:43:08;2.58;;;1.00;;
25917;SDS011;13899;51.174;4.456;2023-04-25T09:45:54;4.78;;;1.20;;
25917;SDS011;13899;51.174;4.456;2023-04-25T09:48:24;3.63;;;0.90;;
25917;SDS011;13899;51.174;4.456;2023-04-25T09:53:45;3.95;;;0.90;;
25917;SDS011;13899;51.174;4.456;2023-04-25T09:56:14;2.45;;;0.95;;
25917;SDS011;13899;51.174;4.456;2023-04-25T09:58:41;2.63;;;0.95;;
25917;SDS011;13899;51.174;4.456;2023-04-25T10:01:08;4.05;;;1.33;;
25917;SDS011;13899;51.174;4.456;2023-04-25T10:03:35;3.08;;;1.77;;
25917;SDS011;13899;51.174;4.456;2023-04-25T10:06:08;3.05;;;1.10;;
25917;SDS011;13899;51.174;4.456;2023-04-25T10:08:38;4.43;;;1.00;;
25917;SDS011;13899;51.174;4.456;2023-04-25T10:11:05;2.70;;;1.30;;
25917;SDS011;13899;51.174;4.456;2023-04-25T10:13:32;3.15;;;1.30;;
25917;SDS011;13899;51.174;4.456;2023-04-25T10:15:59;3.88;;;1.48;;
25917;SDS011;13899;51.174;4.456;2023-04-25T10:18:27;6.32;;;1.50;;
25917;SDS011;13899;51.174;4.456;2023-04-25T10:21:00;4.45;;;1.40;;
25917;SDS011;13899;51.174;4.456;2023-04-25T10:23:29;3.40;;;1.55;;
25917;SDS011;13899;51.174;4.456;2023-04-25T10:25:59;3.13;;;1.40;;
25917;SDS011;13899;51.174;4.456;2023-04-25T10:28:25;6.05;;;1.52;;
25917;SDS011;13899;51.174;4.456;2023-04-25T10:31:01;8.17;;;1.70;;
25917;SDS011;13899;51.174;4.456;2023-04-25T10:33:36;4.43;;;1.58;;
25917;SDS011;13899;51.174;4.456;2023-04-25T10:36:12;7.43;;;2.22;;
25917;SDS011;13899;51.174;4.456;2023-04-25T10:38:40;6.13;;;1.00;;
25917;SDS011;13899;51.174;4.456;2023-04-25T10:41:08;5.90;;;2.50;;
25917;SDS011;13899;51.174;4.456;2023-04-25T10:43:42;6.28;;;2.45;;
25917;SDS011;13899;51.174;4.456;2023-04-25T10:46:22;4.25;;;2.30;;
25917;SDS011;13899;51.174;4.456;2023-04-25T10:48:53;3.25;;;1.38;;
25917;SDS011;13899;51.174;4.456;2023-04-25T10:51:27;4.65;;;1.30;;
25917;SDS011;13899;51.174;4.456;2023-04-25T10:54:06;5.05;;;1.65;;
25917;SDS011;13899;51.174;4.456;2023-04-25T10:56:33;4.70;;;2.03;;
25917;SDS011;13899;51.174;4.456;2023-04-25T11:01:39;6.15;;;1.30;;
25917;SDS011;13899;51.174;4.456;2023-04-25T11:09:43;4.68;;;3.97;;
25917;SDS011;13899;51.174;4.456;2023-04-25T11:12:10;5.55;;;5.18;;
25917;SDS011;13899;51.174;4.456;2023-04-25T11:14:39;1.95;;;0.93;;
25917;SDS011;13899;51.174;4.456;2023-04-25T11:17:05;3.00;;;2.70;;
25917;SDS011;13899;51.174;4.456;2023-04-25T11:19:31;7.57;;;4.82;;
25917;SDS011;13899;51.174;4.456;2023-04-25T11:22:00;3.80;;;2.43;;
25917;SDS011;13899;51.174;4.456;2023-04-25T11:24:27;4.13;;;3.30;;
25917;SDS011;13899;51.174;4.456;2023-04-25T11:29:21;4.33;;;3.93;;
25917;SDS011;13899;51.174;4.456;2023-04-25T11:31:48;2.58;;;1.85;;
25917;SDS011;13899;51.174;4.456;2023-04-25T11:34:18;3.03;;;2.22;;
25917;SDS011;13899;51.174;4.456;2023-04-25T11:36:44;2.30;;;2.10;;
25917;SDS011;13899;51.174;4.456;2023-04-25T11:39:11;2.92;;;1.30;;
25917;SDS011;13899;51.174;4.456;2023-04-25T11:41:37;1.48;;;0.70;;
25917;SDS011;13899;51.174;4.456;2023-04-25T11:44:03;3.45;;;0.82;;
25917;SDS011;13899;51.174;4.456;2023-04-25T11:46:30;2.15;;;0.68;;
25917;SDS011;13899;51.174;4.456;2023-04-25T11:48:58;1.77;;;0.82;;
25917;SDS011;13899;51.174;4.456;2023-04-25T11:51:24;8.15;;;7.63;;
25917;SDS011;13899;51.174;4.456;2023-04-25T11:53:51;9.57;;;9.07;;
25917;SDS011;13899;51.174;4.456;2023-04-25T11:56:16;15.37;;;14.40;;
25917;SDS011;13899;51.174;4.456;2023-04-25T12:01:30;4.25;;;2.83;;
25917;SDS011;13899;51.174;4.456;2023-04-25T12:03:58;6.95;;;4.88;;
25917;SDS011;13899;51.174;4.456;2023-04-25T12:06:37;3.92;;;0.98;;
25917;SDS011;13899;51.174;4.456;2023-04-25T12:09:10;2.95;;;2.50;;
25917;SDS011;13899;51.174;4.456;2023-04-25T12:11:44;6.28;;;5.38;;
25917;SDS011;13899;51.174;4.456;2023-04-25T12:14:24;6.65;;;6.25;;
25917;SDS011;13899;51.174;4.456;2023-04-25T12:16:52;4.03;;;0.80;;
25917;SDS011;13899;51.174;4.456;2023-04-25T12:19:19;17.95;;;17.10;;
25917;SDS011;13899;51.174;4.456;2023-04-25T12:21:45;4.50;;;2.92;;
25917;SDS011;13899;51.174;4.456;2023-04-25T12:24:13;3.50;;;1.90;;
25917;SDS011;13899;51.174;4.456;2023-04-25T12:29:22;2.42;;;0.80;;
25917;SDS011;13899;51.174;4.456;2023-04-25T12:31:50;2.00;;;0.80;;
25917;SDS011;13899;51.174;4.456;2023-04-25T12:34:17;3.50;;;1.50;;
25917;SDS011;13899;51.174;4.456;2023-04-25T12:36:43;3.42;;;3.15;;
25917;SDS011;13899;51.174;4.456;2023-04-25T12:39:14;15.47;;;14.67;;
25917;SDS011;13899;51.174;4.456;2023-04-25T12:41:40;6.90;;;4.65;;
25917;SDS011;13899;51.174;4.456;2023-04-25T12:44:06;6.20;;;5.70;;
25917;SDS011;13899;51.174;4.456;2023-04-25T12:46:31;12.10;;;11.40;;
25917;SDS011;13899;51.174;4.456;2023-04-25T12:48:57;3.73;;;1.37;;
25917;SDS011;13899;51.174;4.456;2023-04-25T12:51:23;10.40;;;9.67;;
25917;SDS011;13899;51.174;4.456;2023-04-25T12:53:50;9.48;;;8.88;;
25917;SDS011;13899;51.174;4.456;2023-04-25T12:56:17;8.77;;;8.18;;
25917;SDS011;13899;51.174;4.456;2023-04-25T12:58:42;3.87;;;3.53;;
25917;SDS011;13899;51.174;4.456;2023-04-25T13:01:09;5.18;;;4.78;;
25917;SDS011;13899;51.174;4.456;2023-04-25T13:03:35;6.73;;;3.03;;
25917;SDS011;13899;51.174;4.456;2023-04-25T13:06:00;4.60;;;3.77;;
25917;SDS011;13899;51.174;4.456;2023-04-25T13:08:26;5.27;;;3.40;;
25917;SDS011;13899;51.174;4.456;2023-04-25T13:10:52;6.23;;;5.63;;
25917;SDS011;13899;51.174;4.456;2023-04-25T13:13:17;9.73;;;6.20;;
25917;SDS011;13899;51.174;4.456;2023-04-25T13:15:43;4.30;;;3.20;;
25917;SDS011;13899;51.174;4.456;2023-04-25T13:18:09;9.10;;;8.60;;
25917;SDS011;13899;51.174;4.456;2023-04-25T13:20:35;9.60;;;9.02;;
25917;SDS011;13899;51.174;4.456;2023-04-25T13:23:01;7.00;;;6.33;;
25917;SDS011;13899;51.174;4.456;2023-04-25T13:25:27;10.07;;;8.43;;
25917;SDS011;13899;51.174;4.456;2023-04-25T13:27:52;6.37;;;5.90;;
25917;SDS011;13899;51.174;4.456;2023-04-25T13:30:18;4.07;;;3.77;;
25917;SDS011;13899;51.174;4.456;2023-04-25T13:32:44;2.83;;;0.70;;
25917;SDS011;13899;51.174;4.456;2023-04-25T13:35:10;4.27;;;1.30;;
25917;SDS011;13899;51.174;4.456;2023-04-25T13:37:38;2.15;;;0.93;;
25917;SDS011;13899;51.174;4.456;2023-04-25T13:40:04;4.10;;;3.40;;
25917;SDS011;13899;51.174;4.456;2023-04-25T13:42:34;4.10;;;1.27;;
25917;SDS011;13899;51.174;4.456;2023-04-25T13:45:00;7.93;;;6.80;;
25917;SDS011;13899;51.174;4.456;2023-04-25T13:47:26;4.17;;;3.50;;
25917;SDS011;13899;51.174;4.456;2023-04-25T13:49:52;8.32;;;7.70;;
25917;SDS011;13899;51.174;4.456;2023-04-25T13:52:18;9.70;;;9.00;;
25917;SDS011;13899;51.174;4.456;2023-04-25T13:54:44;7.60;;;7.03;;
25917;SDS011;13899;51.174;4.456;2023-04-25T13:57:09;8.63;;;8.13;;
25917;SDS011;13899;51.174;4.456;2023-04-25T13:59:36;9.45;;;8.73;;
25917;SDS011;13899;51.174;4.456;2023-04-25T14:02:02;9.65;;;8.90;;
25917;SDS011;13899;51.174;4.456;2023-04-25T14:04:27;10.10;;;9.30;;
25917;SDS011;13899;51.174;4.456;2023-04-25T14:06:53;18.37;;;17.20;;
25917;SDS011;13899;51.174;4.456;2023-04-25T14:09:19;17.13;;;16.27;;
25917;SDS011;13899;51.174;4.456;2023-04-25T14:11:47;7.53;;;6.82;;
25917;SDS011;13899;51.174;4.456;2023-04-25T14:14:13;10.47;;;9.77;;
25917;SDS011;13899;51.174;4.456;2023-04-25T14:16:41;15.50;;;14.60;;
25917;SDS011;13899;51.174;4.456;2023-04-25T14:19:06;2.33;;;0.60;;
25917;SDS011;13899;51.174;4.456;2023-04-25T14:21:32;4.93;;;0.83;;
25917;SDS011;13899;51.174;4.456;2023-04-25T14:23:58;4.10;;;0.97;;
25917;SDS011;13899;51.174;4.456;2023-04-25T14:26:23;12.67;;;11.97;;
25917;SDS011;13899;51.174;4.456;2023-04-25T14:28:50;3.70;;;0.90;;
25917;SDS011;13899;51.174;4.456;2023-04-25T14:31:17;3.25;;;0.82;;
25917;SDS011;13899;51.174;4.456;2023-04-25T14:33:42;2.90;;;1.03;;
25917;SDS011;13899;51.174;4.456;2023-04-25T14:36:08;6.73;;;6.23;;
25917;SDS011;13899;51.174;4.456;2023-04-25T14:41:00;2.07;;;0.83;;
25917;SDS011;13899;51.174;4.456;2023-04-25T14:43:26;3.30;;;1.03;;
25917;SDS011;13899;51.174;4.456;2023-04-25T14:45:52;4.67;;;0.80;;
25917;SDS011;13899;51.174;4.456;2023-04-25T14:48:18;9.02;;;8.45;;
25917;SDS011;13899;51.174;4.456;2023-04-25T14:50:45;12.67;;;11.60;;
25917;SDS011;13899;51.174;4.456;2023-04-25T14:53:11;14.75;;;13.88;;
25917;SDS011;13899;51.174;4.456;2023-04-25T14:55:37;6.00;;;5.60;;
25917;SDS011;13899;51.174;4.456;2023-04-25T14:58:03;3.40;;;1.10;;
25917;SDS011;13899;51.174;4.456;2023-04-25T15:00:28;4.80;;;1.30;;
25917;SDS011;13899;51.174;4.456;2023-04-25T15:02:56;4.32;;;1.20;;
25917;SDS011;13899;51.174;4.456;2023-04-25T15:05:23;7.28;;;1.33;;
25917;SDS011;13899;51.174;4.456;2023-04-25T15:07:48;4.10;;;1.40;;
25917;SDS011;13899;51.174;4.456;2023-04-25T15:10:16;14.85;;;13.68;;